Tiempo atmosférico en la estación meteorológica de Villardeciervos, Zamora (850 m.)



Fecha
DESCASC
Temp. máxima en grados centígrados (hora)
DESCASC
Temp. mínima en grados centígrados (hora)
DESCASC
Temp. media en grados centígrados
DESCASC
Racha de viento máxima en m/sg (hora)
DESCASC
Velocidad máxima media en intervalos de 10 minutos(hora)
DESCASC
Precipitaciones diarias en mm
DESCASC
Precipitaciones de 00:00 a 06:00 en mm
DESCASC
Precipitaciones de 06:00 a 12:00 en mm
DESCASC
Precipitaciones de 12:00 a 18:00 en mm
DESCASC
Precipitaciones de 18:00 a 24:00 en mm
DESCASC
22-11-2020 17.6 (15:20) -2.2 (07:50) 7.7 3.89 (16:00) 2.22 (16:00) 0 0 0 0 0
21-11-2020 16.4 (15:30) -1 (08:20) 7.7 6.11 (14:30) 3.06 (13:10) 0 0 0 0 0
20-11-2020 12.2 (16:10) 1.5 (23:50) 6.8 7.22 (11:40) 3.61 (11:40) 0 0 0 0 0
19-11-2020 19 (14:50) 3.5 (00:00) 11.3 4.72 (15:00) 2.78 (19:10) 0 0 0 0 0
18-11-2020 18.7 (14:30) 3.8 (00:00) 11.3 5 (15:20) 2.5 (15:20) 0 0 0 0 0
17-11-2020 18.2 (15:20) -0.6 (-00:0) 8.8 3.61 (15:10) 1.94 (16:20) 0 0 0 0 0
16-11-2020 16.2 (16:00) 3.2 (00:00) 9.7 8.33 (00:10) 4.72 (00:10) 0 0 0 0 0
15-11-2020 14 (16:20) 11.7 (00:00) 12.8 15.28 (09:10) 7.5 (09:10) 0.2 0 0 0 0.2
14-11-2020 12 (20:20) 3.2 (00:00) 7.6 9.72 (22:00) 5.28 (22:00) 0 0 0 0 0
13-11-2020 14.2 (14:50) 3.7 (00:00) 8.9 6.67 (14:30) 3.06 (14:30) 0 0 0 0 0
12-11-2020 12.5 (15:50) 4.7 (00:00) 8.6 3.89 (01:20) 2.5 (00:50) 0 0 0 0 0
11-11-2020 11.3 (14:40) 5.3 (00:00) 8.3 7.5 (14:10) 4.17 (14:20) 0 0 0 0 0
10-11-2020 14.1 (14:00) -0.3 (00:00) 6.9 5.83 (14:40) 3.06 (15:20) 0.2 0.2 0 0 0
09-11-2020 12.5 (14:50) 4.8 (00:00) 8.7 7.22 (14:00) 4.17 (13:40) 0.2 0 0 0.2 0
08-11-2020 12.4 (16:40) 9.6 (00:00) 11 15.28 (05:40) 5.83 (08:20) 14.8 0 0 9.4 5.4
07-11-2020 13.8 (16:10) 9.1 (00:00) 11.5 11.39 (01:40) 5.56 (13:20) 0 0 0 0 0
06-11-2020 14.8 (19:30) 8 (00:00) 11.4 17.78 (21:00) 7.5 (20:20) 5.6 3.8 1.6 0 0.2
05-11-2020 10 (16:30) 4.1 (00:00) 7 22.22 (16:10) 4.72 (09:30) 2.2 0 1 0.6 0.6
04-11-2020 9.4 (15:40) 2.4 (00:00) 5.9 21.11 (12:40) 7.5 (14:10) 1.4 0 0 0 1.4
03-11-2020 15 (14:30) 2.4 (00:00) 8.7 17.5 (17:00) 4.72 (14:30) 0 0 0 0 0
02-11-2020 17.7 (15:30) 12 (00:00) 14.9 9.72 (10:10) 5.83 (08:30) 0.4 0 0 0 0.4
01-11-2020 15.3 (17:00) 11.6 (00:00) 13.5 8.33 (07:20) 5 (07:20) 0 0 0 0 0
31-10-2020 16.8 (15:10) 3.1 (00:00) 9.9 11.11 (15:30) 5.28 (15:30) 0 0 0 0 0
30-10-2020 19.2 (16:10) 1.7 (00:00) 10.5 6.94 (14:30) 3.33 (16:40) 0 0 0 0 0
29-10-2020 14.8 (16:10) -0.9 (-00:0) 7 5 (14:40) 2.5 (13:30) 0 0 0 0 0
28-10-2020 14.9 (14:50) 5.9 (00:00) 10.4 12.22 (15:10) 6.67 (13:30) 0.8 0.8 0 0 0
27-10-2020 10.2 (23:59) 6.1 (00:00) 8.1 10.28 (19:20) 6.11 (19:10) 0.8 0 0 0.2 0.6
26-10-2020 11.3 (12:30) 2.6 (00:00) 7 11.39 (13:40) 6.39 (13:20) 0 0 0 0 0

Gráficas

Temp. máximas Temp. mínimas Temp. medias Precipitaciones Rachas de viento máximas Velocidades máximas media en intervalos de 10 minutos

Datos horarios

Fecha y hora oficial Temperatura (ºC) Velocidad del viento (km/h) Dirección del viento Racha (km/h) Dirección de racha Precipitación (mm) Presión (hPa) Tendencia (hPa) Humedad (%)
2020-11-24 23:00:00 -- -- -- -- -- -- -- -- --
2020-11-24 22:00:00 -- -- -- -- -- -- -- -- --
2020-11-24 21:00:00 -- -- -- -- -- -- -- -- --
2020-11-24 20:00:00 -- -- -- -- -- -- -- -- --
2020-11-24 19:00:00 7.5 -- -- -- -- -- 920.3 -- 80
2020-11-24 18:00:00 -- -- -- -- -- -- -- -- --
2020-11-24 17:00:00 -- -- -- -- -- -- -- -- --
2020-11-24 16:00:00 10.1 17 Sudoeste 31 Sur 0 920.7 -- 67
2020-11-24 15:00:00 11.1 16 Sudoeste 33 Sudoeste 0 921.3 -- 62
2020-11-24 14:00:00 10.7 12 Sudoeste 28 Sudoeste 0 922.1 -- 65
2020-11-24 13:00:00 9.8 8 Sudoeste 22 Sudoeste 0 923.2 -- 67
2020-11-24 12:00:00 9.9 8 Sudoeste 23 Sudoeste 0 924 -- 64
2020-11-24 11:00:00 5.3 4 Sur 13 Sudoeste 0 924.3 -- 88
2020-11-24 10:00:00 1.8 0 Calma 6 Noroeste 0 924.4 -- 91
2020-11-24 09:00:00 -1 3 Noroeste 5 Noroeste 0 924.3 -- 93
2020-11-24 08:00:00 -1.2 0 Calma 6 Norte 0 924.2 -- 93
2020-11-24 07:00:00 -1.1 3 Noroeste 7 Sur 0 924.1 -- 93
2020-11-24 06:00:00 -0.2 0 Calma 5 Noroeste 0 924.3 -- 93
2020-11-24 05:00:00 -0.4 4 Noroeste 9 Sudeste 0 924.5 -- 92
2020-11-24 04:00:00 0.6 3 Noroeste 5 Noroeste 0 925 -- 92
2020-11-24 03:00:00 0.8 0 Calma 4 Sudeste 0 925.5 -- 92
2020-11-24 02:00:00 1 0 Calma 4 Noroeste 0 926 -- 91
2020-11-24 01:00:00 1.1 3 Noroeste 5 Sur 0 926.6 -- 89
2020-11-24 00:00:00 1.9 4 Sur 5 Sur 0 927 -- 89
2020-11-23 23:00:00 3.2 2 Norte 4 Noroeste 0 927.4 -- 86
2020-11-23 22:00:00 4.1 3 Sudoeste 6 Sur 0 927.5 -- 86
2020-11-23 21:00:00 4.8 0 Calma 7 Sur 0 927.6 -- 84
2020-11-23 20:00:00 6.5 2 Sur 7 Sudoeste 0 927.7 -- 77
2020-11-23 19:00:00 9.1 4 Sudoeste 9 Sudoeste 0 927.5 -- 70
2020-11-23 18:00:00 11 3 Sudoeste 6 Este 0 927.4 -- 66
2020-11-23 17:00:00 14.3 4 Este 10 Sudeste 0 927.4 -- 52
2020-11-23 16:00:00 16.7 3 Norte 6 Noroeste 0 927.4 -- 42
2020-11-23 15:00:00 15.9 2 Norte 9 Oeste 0 927.9 -- 43
2020-11-23 14:00:00 15.5 4 Norte 10 Noroeste 0 928.5 -- 44
2020-11-23 13:00:00 13 2 Sur 8 Este 0 929.4 -- 49
2020-11-23 12:00:00 10.7 4 Este 9 Sudeste 0 930.3 -- 63
2020-11-23 11:00:00 6.7 3 Este 9 Sudeste 0 930.5 -- 79
2020-11-23 10:00:00 2.3 0 Calma 5 Sudeste 0 930.2 -- 89
2020-11-23 09:00:00 -1.3 2 Sudeste 5 Noroeste 0 930.1 -- 93
2020-11-23 08:00:00 -2 2 Sur 7 Sudeste 0 929.6 -- 92
2020-11-23 07:00:00 -1.6 4 Noroeste 6 Sur 0 929.4 -- 91
2020-11-23 06:00:00 -1.4 4 Sur 9 Sudoeste 0 929.4 -- 92
2020-11-23 05:00:00 -0.9 0 Calma 5 Sudeste 0 929.5 -- 92
2020-11-23 04:00:00 -1.4 0 Calma 5 Sudeste 0 929.6 -- 90
2020-11-23 03:00:00 -0.5 4 Noroeste 6 Norte 0 929.5 -- 90
2020-11-23 02:00:00 0.2 3 Sudeste 5 Sur 0 929.7 -- 91
2020-11-23 01:00:00 0.5 0 Calma 5 Sur 0 930 -- 90
2020-11-23 00:00:00 0.6 4 Sur 5 Sur 0 929.9 -- 87
2020-11-22 23:00:00 2.2 2 Sudoeste 7 Norte 0 929.9 -- 87
2020-11-22 22:00:00 2.7 2 Sur 6 Norte 0 929.5 -- 83
2020-11-22 21:00:00 4.8 6 Sur 8 Sur 0 929.2 -- 78
2020-11-22 20:00:00 5.1 5 Sur 8 Sur 0 928.9 -- 78
2020-11-22 19:00:00 8 5 Sur 8 Sur 0 928.6 -- 64
2020-11-22 18:00:00 11.9 3 Sur 10 Noroeste 0 928.2 -- 54
2020-11-22 17:00:00 16.8 3 Sudoeste 14 Sudoeste 0 928 -- 41
2020-11-22 16:00:00 17.1 8 Sudoeste 14 Sudoeste 0 927.8 -- 34
2020-11-22 15:00:00 17 5 Sur 14 Sudoeste 0 928.1 -- 30
2020-11-22 14:00:00 16.2 6 Sudoeste 13 Sudoeste 0 928.6 -- 35
2020-11-22 13:00:00 15.1 5 Sudoeste 12 Sudoeste 0 929.2 -- 40
2020-11-22 12:00:00 12.9 0 Calma 5 Norte 0 929.9 -- 50
2020-11-22 11:00:00 8.7 0 Calma 4 Este 0 930 -- 62
2020-11-22 10:00:00 4 0 Calma 5 Nordeste 0 929.9 -- 76
2020-11-22 09:00:00 -0.9 0 Calma 13 Sudeste 0 929.6 -- 90
2020-11-22 08:00:00 -2 0 Calma 5 Sudeste 0 929.4 -- 90
2020-11-22 07:00:00 -1.7 0 Calma 6 Norte 0 929.5 -- 90
2020-11-22 06:00:00 -1.1 0 Calma 5 Sudoeste 0 929.2 -- 90
2020-11-22 05:00:00 -1.1 2 Sur 6 Sur 0 929.1 -- 91
2020-11-22 04:00:00 -1.1 0 Calma 6 Noroeste 0 929 -- 89
2020-11-22 03:00:00 -0.8 3 Oeste 6 Oeste 0 928.7 -- 87
2020-11-22 02:00:00 -0.1 0 Calma 5 Norte 0 928.8 -- 88
2020-11-22 01:00:00 0 3 Sur 7 Sur 0 928.9 -- 84
2020-11-22 00:00:00 0.7 2 Sur 6 Sur 0 929 -- 85
2020-11-21 23:00:00 1.3 3 Sur 6 Sur 0 929.2 -- 84
2020-11-21 22:00:00 2 4 Sudeste 6 Sudeste 0 929.1 -- 78
2020-11-21 21:00:00 2.9 3 Sudoeste 5 Sur 0 928.9 -- 74
2020-11-21 20:00:00 4.5 3 Sur 5 Sudeste 0 928.7 -- 70
2020-11-21 19:00:00 7.8 3 Sudoeste 11 Sudoeste 0 928.4 -- 59
2020-11-21 18:00:00 11.5 5 Sudoeste 10 Sudoeste 0 928.1 -- 48
2020-11-21 17:00:00 15.4 6 Sudeste 17 Sudeste 0 928 -- 28
2020-11-21 16:00:00 16.4 7 Este 19 Nordeste 0 928 -- 25
2020-11-21 15:00:00 16.3 10 Este 22 Sudeste 0 928.3 -- 27
2020-11-21 14:00:00 15.6 9 Este 19 Este 0 928.7 -- 28
2020-11-21 13:00:00 14.8 10 Este 20 Nordeste 0 929.6 -- 30
2020-11-21 12:00:00 13 9 Este 18 Este 0 930.5 -- 36
2020-11-21 11:00:00 10.7 2 Nordeste 7 Nordeste 0 930.6 -- 53
2020-11-21 10:00:00 4.9 0 Calma 4 Sudeste 0 930.6 -- 82
2020-11-21 09:00:00 -0.3 3 Sudeste 5 Sudeste 0 930.3 -- 90
2020-11-21 08:00:00 -0.9 0 Calma 5 Sur 0 930.3 -- 90
2020-11-21 07:00:00 -0.1 2 Sur 5 Sur 0 930.4 -- 92
2020-11-21 06:00:00 0.2 4 Sur 5 Sur 0 930.4 -- 93
2020-11-21 05:00:00 0.1 2 Oeste 5 Sudoeste 0 930.5 -- 92
2020-11-21 04:00:00 0 2 Sudeste 4 Sudeste 0 931.1 -- 91
2020-11-21 03:00:00 0.3 2 Noroeste 6 Noroeste 0 931.3 -- 89
2020-11-21 02:00:00 1 2 Noroeste 5 Noroeste 0 931.6 -- 87
2020-11-21 01:00:00 2.3 0 Calma 7 Norte 0 931.9 -- 90
2020-11-21 00:00:00 1.6 0 Calma 8 Sudeste 0 932.1 -- 90
2020-11-20 23:00:00 1.8 3 Sur 7 Sudoeste 0 932.4 -- 90
2020-11-20 22:00:00 2.2 4 Sudoeste 6 Sudoeste 0 932.6 -- 87
2020-11-20 21:00:00 3.2 3 Sudoeste 6 Noroeste 0 932.6 -- 85
2020-11-20 20:00:00 4.8 2 Sur 7 Sur 0 932.6 -- 78
2020-11-20 19:00:00 7.1 3 Sur 11 Nordeste 0 932.6 -- 72
2020-11-20 18:00:00 9.2 4 Nordeste 14 Este 0 932.7 -- 64
2020-11-20 17:00:00 11.4 9 Este 21 Este 0 932.5 -- 55
2020-11-20 16:00:00 12.1 10 Este 23 Este 0 932.6 -- 54
2020-11-20 15:00:00 11.7 12 Nordeste 23 Nordeste 0 933.2 -- 56
2020-11-20 14:00:00 10.8 10 Este 24 Este 0 933.8 -- 58
2020-11-20 13:00:00 9.5 11 Este 23 Este 0 934.4 -- 66
2020-11-20 12:00:00 7.8 9 Nordeste 26 Este 0 935.3 -- 73
2020-11-20 11:00:00 6.8 9 Nordeste 22 Nordeste 0 935.6 -- 79
2020-11-20 10:00:00 6.1 9 Este 19 Este 0 935.6 -- 82
2020-11-20 09:00:00 5.8 8 Este 22 Este 0 935.3 -- 83
2020-11-20 08:00:00 6.1 9 Este 19 Este 0 935.2 -- 83
2020-11-20 07:00:00 6.4 9 Este 17 Este 0 935.1 -- 86
2020-11-20 06:00:00 6.8 8 Este 21 Este 0 935.2 -- 87
2020-11-20 05:00:00 7.1 5 Nordeste 14 Este 0 935.5 -- 88
2020-11-20 04:00:00 7.4 7 Este 13 Este 0 935.5 -- 86
2020-11-20 03:00:00 7.6 4 Este 14 Este 0 936 -- 86
2020-11-20 02:00:00 7.8 7 Este 16 Nordeste 0 936.5 -- 88
2020-11-20 01:00:00 7.9 5 Este 15 Nordeste 0 936.7 -- 89
2020-11-20 00:00:00 7.6 3 Norte 9 Norte 0 936.5 -- 91
2020-11-19 23:00:00 7.3 4 Noroeste 8 Este 0 936.5 -- 91
2020-11-19 22:00:00 6.7 3 Oeste 7 Noroeste 0 936.3 -- 88
2020-11-19 21:00:00 8 2 Sur 5 Sudeste 0 935.6 -- 88
2020-11-19 20:00:00 9.8 3 Noroeste 14 Sudoeste 0 935.5 -- 81
2020-11-19 19:00:00 11.7 8 Sudoeste 10 Sudoeste 0 935.2 -- 79
2020-11-19 18:00:00 14.3 5 Sur 10 Sur 0 934.8 -- 69
2020-11-19 17:00:00 17.6 6 Sur 13 Sudeste 0 934.4 -- 58
2020-11-19 16:00:00 18.6 5 Sur 17 Sur 0 934.5 -- 53
2020-11-19 15:00:00 18.9 6 Sur 17 Sur 0 934.6 -- 54
2020-11-19 14:00:00 18 3 Este 9 Sudeste 0 935.4 -- 57
2020-11-19 13:00:00 16.2 2 Norte 12 Norte 0 936.2 -- 64
2020-11-19 12:00:00 14.6 5 Norte 13 Nordeste 0 936.5 -- 70
2020-11-19 11:00:00 12.2 5 Este 12 Este 0 936.4 -- 77
2020-11-19 10:00:00 8.4 3 Norte 8 Sudeste 0 936.5 -- 94
2020-11-19 09:00:00 3.8 4 Sudeste 8 Norte 0 936 -- 94
2020-11-19 08:00:00 3.8 5 Noroeste 10 Sur 0 934.7 -- 94
2020-11-19 07:00:00 4.3 6 Sudeste 12 Noroeste 0 934.1 -- 94
2020-11-19 06:00:00 4.3 2 Norte 13 Sur 0 933.4 -- 94
2020-11-19 05:00:00 3.8 6 Sudeste 10 Sur 0 933.3 -- 93
2020-11-19 04:00:00 3.9 4 Noroeste 8 Sudeste 0 932.9 -- 93
2020-11-19 03:00:00 4.4 2 Este 7 Sudeste 0 932.6 -- 92
2020-11-19 02:00:00 5 3 Este 9 Sur 0 932.5 -- 90
2020-11-19 01:00:00 6.1 5 Noroeste 8 Noroeste 0 932.5 -- 90
2020-11-19 00:00:00 7.4 5 Sudoeste 14 Sur 0 932.5 -- 92
2020-11-18 23:00:00 6.6 4 Sudeste 6 Sur 0 932.5 -- 88
2020-11-18 22:00:00 8.1 3 Sur 6 Sur 0 931.6 -- 87
2020-11-18 21:00:00 8.6 4 Sur 7 Sudoeste 0 931 -- 84
2020-11-18 20:00:00 9.8 3 Sudeste 7 Sudoeste 0 930.5 -- 80
2020-11-18 19:00:00 11.8 3 Sudoeste 12 Sudoeste 0 930 -- 75
2020-11-18 18:00:00 14.8 7 Oeste 13 Oeste 0 929.5 -- 63
2020-11-18 17:00:00 17.9 6 Oeste 14 Sudoeste 0 929 -- 53
2020-11-18 16:00:00 18.5 8 Sudoeste 18 Sudoeste 0 928.8 -- 54
2020-11-18 15:00:00 18.4 7 Sur 15 Sudoeste 0 928.9 -- 54
2020-11-18 14:00:00 18 3 Este 11 Noroeste 0 929.1 -- 56
2020-11-18 13:00:00 16.5 3 Norte 11 Nordeste 0 929.7 -- 63
2020-11-18 12:00:00 14.3 4 Este 7 Nordeste 0 930.2 -- 66
2020-11-18 11:00:00 12 3 Nordeste 6 Norte 0 930 -- 73
2020-11-18 10:00:00 8.7 2 Nordeste 6 Norte 0 929.9 -- 87
2020-11-18 09:00:00 6.6 2 Noroeste 5 Noroeste 0 929.3 -- 91
2020-11-18 08:00:00 6.8 2 Nordeste 12 Noroeste 0 928.7 -- 91
2020-11-18 07:00:00 7 3 Oeste 6 Norte 0 928.3 -- 89
2020-11-18 06:00:00 7.9 3 Sudeste 7 Norte 0 928 -- 90
2020-11-18 05:00:00 7.9 4 Sudeste 6 Este 0 927.9 -- 91
2020-11-18 04:00:00 7.3 0 Calma 8 Norte 0 927.9 -- 92
2020-11-18 03:00:00 6.7 3 Sur 4 Norte 0 927.8 -- 92
2020-11-18 02:00:00 5.8 2 Norte 4 Noroeste 0 928 -- 92
2020-11-18 01:00:00 5 0 Calma 3 Sur 0 928.3 -- 93
2020-11-18 00:00:00 4 0 Calma 8 Sur 0 928.4 -- 91
2020-11-17 23:00:00 4.5 3 Sur 6 Sudeste 0 928.5 -- 91
2020-11-17 22:00:00 5 3 Sur 6 Sur 0 928.2 -- 88
2020-11-17 21:00:00 6.8 3 Sur 5 Sur 0 928.1 -- 88
2020-11-17 20:00:00 8.2 2 Sudoeste 5 Sudeste 0 927.9 -- 84
2020-11-17 19:00:00 10.7 4 Sur 8 Sudeste 0 927.5 -- 76
2020-11-17 18:00:00 13.9 0 Calma 8 Sudoeste 0 927.4 -- 63
2020-11-17 17:00:00 17.6 5 Sur 13 Sur 0 927.5 -- 45
2020-11-17 16:00:00 17.7 7 Sur 13 Sudoeste 0 927.3 -- 36
2020-11-17 15:00:00 18 3 Nordeste 13 Sudeste 0 927.5 -- 43
2020-11-17 14:00:00 16.3 3 Noroeste 9 Oeste 0 928 -- 61
2020-11-17 13:00:00 13.7 3 Noroeste 8 Noroeste 0 928.8 -- 71
2020-11-17 12:00:00 11.6 3 Norte 7 Nordeste 0 929.7 -- 76
2020-11-17 11:00:00 8.2 0 Calma 3 Norte 0 929.9 -- 88
2020-11-17 10:00:00 3.5 0 Calma 5 Sudeste 0 929.8 -- 94
2020-11-17 09:00:00 0.2 0 Calma 7 Sudeste 0 929.4 -- 95
2020-11-17 08:00:00 -0.3 3 Noroeste 5 Norte 0 928.9 -- 95
2020-11-17 07:00:00 -0.3 2 Sudeste 5 Sur 0 928.9 -- 94
2020-11-17 06:00:00 0 0 Calma 4 Sudeste 0 928.8 -- 94
2020-11-17 05:00:00 0.7 3 Sudeste 5 Sudeste 0 928.8 -- 94
2020-11-17 04:00:00 1.2 0 Calma 3 Oeste 0 929 -- 94
2020-11-17 03:00:00 1.4 0 Calma 4 Noroeste 0 929 -- 93
2020-11-17 02:00:00 1.7 2 Sudeste 4 Sur 0 929 -- 93
2020-11-17 01:00:00 2.7 0 Calma 4 Sudeste 0 929.2 -- 92
2020-11-17 00:00:00 3.2 3 Oeste 5 Sudoeste 0 929.2 -- 91
2020-11-16 23:00:00 4 0 Calma 5 Sudeste 0 929.3 -- 91
2020-11-16 22:00:00 5.3 4 Sudoeste 5 Sur 0 928.9 -- 90
2020-11-16 21:00:00 6.6 0 Calma 6 Sudoeste 0 928.4 -- 89
2020-11-16 20:00:00 7.4 2 Sur 6 Sur 0 928.1 -- 86
2020-11-16 19:00:00 8.9 4 Sur 6 Sudoeste 0 927.9 -- 82
2020-11-16 18:00:00 12.5 4 Sudoeste 14 Oeste 0 927.5 -- 73
2020-11-16 17:00:00 15.2 2 Norte 7 Norte 0 927.5 -- 62
2020-11-16 16:00:00 16.2 0 Calma 13 Norte 0 927.2 -- 59
2020-11-16 15:00:00 15.3 3 Noroeste 17 Este 0 927.2 -- 61
2020-11-16 14:00:00 13.7 0 Calma 15 Este 0 927.5 -- 66
2020-11-16 13:00:00 12.8 4 Este 17 Este 0 927.7 -- 73
2020-11-16 12:00:00 11 5 Norte 18 Noroeste 0 928 -- 87
2020-11-16 11:00:00 8.5 2 Norte 12 Norte 0 927.9 -- 93
2020-11-16 10:00:00 7.4 3 Noroeste 7 Norte 0 927 -- 94
2020-11-16 09:00:00 6.3 5 Sudoeste 8 Sudoeste 0 926.2 -- 93
2020-11-16 08:00:00 5 2 Norte 8 Norte 0 925.9 -- 92
2020-11-16 07:00:00 6.2 0 Calma 9 Este 0 925.4 -- 90
2020-11-16 06:00:00 7.5 5 Sudeste 10 Este 0 924.7 -- 90
2020-11-16 05:00:00 9 5 Noroeste 21 Sudoeste 0 924.5 -- 86
2020-11-16 04:00:00 9.7 10 Sudoeste 22 Sudoeste 0 924.5 -- 87
2020-11-16 03:00:00 10 12 Sudoeste 20 Sudoeste 0 924.1 -- 87
2020-11-16 02:00:00 11 11 Sudoeste 23 Sudoeste 0 924.2 -- 86
2020-11-16 01:00:00 11.3 13 Sudoeste 30 Oeste 0 924.1 -- 87
2020-11-16 00:00:00 12 17 Sudoeste 30 Sudoeste 0 923.9 -- 86
2020-11-15 23:00:00 12.2 14 Sudoeste 28 Oeste 0 923.9 -- 87
2020-11-15 22:00:00 12.4 17 Sudoeste 30 Sudoeste 0 923.4 -- 86
2020-11-15 21:00:00 12.9 14 Sudoeste 37 Sudoeste 0.2 922.8 -- 85
2020-11-15 20:00:00 13.2 15 Sudoeste 31 Sudoeste 0 922.2 -- 87
2020-11-15 19:00:00 13.4 12 Oeste 40 Sudoeste 0 921.6 -- 88
2020-11-15 18:00:00 13.5 14 Sudoeste 30 Sur 0 921.2 -- 89
2020-11-15 17:00:00 13.9 18 Sudoeste 34 Sudoeste 0 921 -- 87
2020-11-15 16:00:00 13.8 19 Sudoeste 41 Sudoeste 0 920.8 -- 89
2020-11-15 15:00:00 13.8 18 Sudoeste 51 Sudoeste 0 920.4 -- 89
2020-11-15 14:00:00 13.7 18 Sudoeste 38 Sudoeste 0 920.4 -- 89
2020-11-15 13:00:00 13.8 21 Sudoeste 46 Sudoeste 0 920.8 -- 88
2020-11-15 12:00:00 13.6 18 Sudoeste 52 Sudoeste 0 921 -- 89
2020-11-15 11:00:00 13.3 21 Sudoeste 48 Oeste 0 920.8 -- 90
2020-11-15 10:00:00 13 22 Sudoeste 55 Sudoeste 0 920.3 -- 90
2020-11-15 09:00:00 12.7 21 Sudoeste 45 Sudoeste 0 920 -- 91
2020-11-15 08:00:00 12.7 22 Sudoeste 46 Sur 0 919.9 -- 90
2020-11-15 07:00:00 12.6 19 Sudoeste 47 Sudoeste 0 919.7 -- 91
2020-11-15 06:00:00 12.4 24 Sudoeste 49 Sudoeste 0 919.5 -- 92
2020-11-15 05:00:00 12.1 17 Sudoeste 36 Sudoeste 0 919.8 -- 90
2020-11-15 04:00:00 11.9 15 Sudoeste 36 Oeste 0 920.3 -- 90
2020-11-15 03:00:00 11.9 17 Sur 41 Sudoeste 0 920.5 -- 91
2020-11-15 02:00:00 11.9 19 Sudoeste 36 Sur 0 920.7 -- 91
2020-11-15 01:00:00 11.8 14 Sudoeste 37 Sur 0 921 -- 91
2020-11-15 00:00:00 11.7 17 Sudoeste 33 Sur 0 921.4 -- 91
2020-11-14 23:00:00 11.8 14 Sur 31 Sudoeste 0 921.5 -- 90
2020-11-14 22:00:00 11.9 19 Sudoeste 35 Sudoeste 0 921.4 -- 90
2020-11-14 21:00:00 11.9 14 Sudoeste 30 Sudoeste 0 921.5 -- 89
2020-11-14 20:00:00 11.9 13 Sudoeste 28 Sudoeste 0 921.6 -- 90
2020-11-14 19:00:00 11.7 13 Sudoeste 29 Sudoeste 0 921 -- 91
2020-11-14 18:00:00 11.5 10 Sudoeste 23 Sudoeste 0 920.9 -- 91
2020-11-14 17:00:00 11.6 13 Sudoeste 27 Sur 0 920.8 -- 90
2020-11-14 16:00:00 11.5 9 Sudoeste 21 Sur 0 920.5 -- 90
2020-11-14 15:00:00 11.4 9 Sudoeste 18 Sur 0 920.7 -- 89
2020-11-14 14:00:00 10.9 8 Sudoeste 17 Sudoeste 0 921.1 -- 89
2020-11-14 13:00:00 11 3 Oeste 13 Sur 0 921.5 -- 88
2020-11-14 12:00:00 10.2 3 Sudoeste 10 Oeste 0 922.2 -- 90
2020-11-14 11:00:00 9.2 2 Sur 5 Sudoeste 0 922.1 -- 93
2020-11-14 10:00:00 8 4 Norte 8 Sudeste 0 922 -- 93
2020-11-14 09:00:00 6.9 3 Sudeste 6 Sudeste 0 921.7 -- 93
2020-11-14 08:00:00 6.5 3 Norte 5 Norte 0 921.3 -- 93
2020-11-14 07:00:00 5.6 2 Sur 5 Sudoeste 0 921.2 -- 93
2020-11-14 06:00:00 5.4 0 Calma 8 Norte 0 921.3 -- 92
2020-11-14 05:00:00 6.3 2 Nordeste 5 Sur 0 921.3 -- 93
2020-11-14 04:00:00 5.7 2 Oeste 5 Sur 0 921.5 -- 93
2020-11-14 03:00:00 5.1 2 Nordeste 6 Sur 0 921.8 -- 93
2020-11-14 02:00:00 3.8 2 Este 6 Sur 0 922.1 -- 93
2020-11-14 01:00:00 3.3 5 Sur 6 Sur 0 922.5 -- 92
2020-11-14 00:00:00 5.1 2 Nordeste 6 Sur 0 922.9 -- 91
2020-11-13 23:00:00 5.9 3 Sur 5 Sudeste 0 922.9 -- 92
2020-11-13 22:00:00 5.6 0 Calma 7 Norte 0 922.8 -- 91
2020-11-13 21:00:00 6.5 3 Norte 9 Sudoeste 0 922.6 -- 90
2020-11-13 20:00:00 7.8 8 Sudoeste 10 Sudoeste 0 922.3 -- 87
2020-11-13 19:00:00 8.4 5 Sur 9 Sudoeste 0 922 -- 81
2020-11-13 18:00:00 11.5 5 Oeste 13 Sudoeste 0 921.8 -- 70
2020-11-13 17:00:00 13.7 9 Sudoeste 18 Sudoeste 0 921.7 -- 60
2020-11-13 16:00:00 13.2 10 Sudoeste 22 Oeste 0 921.8 -- 62
2020-11-13 15:00:00 13.8 9 Sudoeste 24 Sur 0 922 -- 66
2020-11-13 14:00:00 11.7 4 Este 11 Este 0 922.4 -- 79
2020-11-13 13:00:00 9.9 5 Este 11 Este 0 922.9 -- 85
2020-11-13 12:00:00 7.7 3 Sudeste 8 Sudeste 0 923.6 -- 93
2020-11-13 11:00:00 6.2 3 Nordeste 9 Sur 0 923.6 -- 94
2020-11-13 10:00:00 5.1 7 Sudeste 13 Sudeste 0 923.4 -- 94
2020-11-13 09:00:00 4.3 0 Calma 4 Sur 0 923.2 -- 94
2020-11-13 08:00:00 3.7 3 Sur 4 Sur 0 922.9 -- 94
2020-11-13 07:00:00 4 0 Calma 6 Sur 0 922.6 -- 94
2020-11-13 06:00:00 5 4 Sur 9 Sur 0 922.5 -- 94
2020-11-13 05:00:00 5.4 0 Calma 9 Sur 0 922.1 -- 94
2020-11-13 04:00:00 5.5 4 Sur 8 Sur 0 922.7 -- 93
2020-11-13 03:00:00 6.1 6 Sudeste 11 Sur 0 922.4 -- 93
2020-11-13 02:00:00 6.9 0 Calma 9 Noroeste 0 922.7 -- 93
2020-11-13 01:00:00 7.6 0 Calma 7 Norte 0 923.2 -- 93
2020-11-13 00:00:00 7.9 0 Calma 4 Sur 0 923.3 -- 93
2020-11-12 23:00:00 7.9 0 Calma 8 Noroeste 0 923.4 -- 93
2020-11-12 22:00:00 8.2 0 Calma 5 Noroeste 0 923.4 -- 92
2020-11-12 21:00:00 8.5 3 Noroeste 5 Noroeste 0 923.3 -- 92
2020-11-12 20:00:00 8.7 2 Nordeste 8 Norte 0 923.4 -- 91
2020-11-12 19:00:00 9.1 4 Norte 8 Nordeste 0 923.2 -- 90
2020-11-12 18:00:00 9.7 4 Norte 7 Sudeste 0 922.6 -- 87
2020-11-12 17:00:00 10.9 2 Este 12 Este 0 922.6 -- 84
2020-11-12 16:00:00 11.9 4 Este 11 Este 0 922.8 -- 79
2020-11-12 15:00:00 11 4 Nordeste 12 Nordeste 0 923.4 -- 85
2020-11-12 14:00:00 9.6 4 Norte 9 Nordeste 0 923.9 -- 89
2020-11-12 13:00:00 8.5 3 Este 8 Sudeste 0 924.8 -- 91
2020-11-12 12:00:00 7.3 3 Este 8 Sur 0 925.6 -- 93
2020-11-12 11:00:00 6.4 3 Norte 7 Norte 0 925.8 -- 93
2020-11-12 10:00:00 5.9 2 Norte 7 Sudeste 0 925.9 -- 94
2020-11-12 09:00:00 5.4 3 Sur 7 Sur 0 925.7 -- 94
2020-11-12 08:00:00 5.5 0 Calma 5 Este 0 925.4 -- 94
2020-11-12 07:00:00 5.2 2 Sudeste 5 Sudeste 0 925.2 -- 94
2020-11-12 06:00:00 5 0 Calma 5 Sudeste 0 925.1 -- 93
2020-11-12 05:00:00 5 0 Calma 6 Sudeste 0 925 -- 93
2020-11-12 04:00:00 4.9 2 Sur 4 Sudeste 0 925.2 -- 93
2020-11-12 03:00:00 5 0 Calma 5 Este 0 925.6 -- 91
2020-11-12 02:00:00 5.8 3 Noroeste 14 Sudoeste 0 925.6 -- 88
2020-11-12 01:00:00 7.5 8 Sur 13 Sudoeste 0 925.9 -- 88
2020-11-12 00:00:00 7.4 6 Sur 12 Sudoeste 0 925.9 -- 88
2020-11-11 23:00:00 7.9 7 Sudoeste 10 Sudoeste 0 925.8 -- 87
2020-11-11 22:00:00 7.9 7 Sudoeste 10 Sudoeste 0 925.6 -- 88
2020-11-11 21:00:00 8.7 7 Sudoeste 13 Sudoeste 0 925.2 -- 84
2020-11-11 20:00:00 9 4 Sur 13 Oeste 0 925.2 -- 82
2020-11-11 19:00:00 9.1 8 Sudoeste 13 Oeste 0 924.9 -- 82
2020-11-11 18:00:00 9.9 8 Sudoeste 15 Sudoeste 0 925 -- 80
2020-11-11 17:00:00 10.7 5 Oeste 23 Sudoeste 0 925 -- 77
2020-11-11 16:00:00 11 13 Sudoeste 24 Sudoeste 0 925 -- 74
2020-11-11 15:00:00 11.1 13 Sudoeste 27 Oeste 0 925.1 -- 74
2020-11-11 14:00:00 11 11 Sudoeste 25 Sudoeste 0 925.3 -- 77
2020-11-11 13:00:00 9 7 Sudoeste 15 Sudoeste 0 926.1 -- 84
2020-11-11 12:00:00 8.2 6 Noroeste 10 Noroeste 0 926.9 -- 89
2020-11-11 11:00:00 6.4 3 Oeste 6 Noroeste 0 926.9 -- 92
2020-11-11 10:00:00 5.9 0 Calma 5 Este 0 927 -- 92
2020-11-11 09:00:00 5.3 3 Sudeste 9 Sudoeste 0 927.1 -- 92
2020-11-11 08:00:00 5.4 3 Sur 5 Sur 0 926.8 -- 92
2020-11-11 07:00:00 5.5 2 Sudoeste 7 Sudoeste 0 927 -- 92
2020-11-11 06:00:00 5.5 3 Sur 10 Sudeste 0 927 -- 92
2020-11-11 05:00:00 5.9 0 Calma 10 Sudeste 0 927.5 -- 92
2020-11-11 04:00:00 6 6 Este 12 Sudeste 0 927.9 -- 92
2020-11-11 03:00:00 6.1 5 Sudeste 9 Sudeste 0 928.4 -- 92
2020-11-11 02:00:00 6 2 Sur 13 Sudeste 0 928.9 -- 93
2020-11-11 01:00:00 6.3 5 Este 11 Este 0 929.2 -- 93
2020-11-11 00:00:00 6.3 4 Este 10 Sudeste 0 929.6 -- 93
2020-11-10 23:00:00 6.4 4 Sudeste 12 Sudeste 0 929.6 -- 93
2020-11-10 22:00:00 6.5 3 Nordeste 10 Sudeste 0 929.6 -- 93
2020-11-10 21:00:00 6.6 4 Sudeste 8 Norte 0 929.3 -- 92
2020-11-10 20:00:00 6.9 5 Nordeste 11 Norte 0 929.4 -- 91
2020-11-10 19:00:00 7.5 4 Nordeste 12 Este 0 929.3 -- 88
2020-11-10 18:00:00 8.3 7 Nordeste 17 Este 0 929.2 -- 85
2020-11-10 17:00:00 10.5 10 Este 18 Este 0 929 -- 77
2020-11-10 16:00:00 12 6 Este 19 Este 0 929.1 -- 72
2020-11-10 15:00:00 12.5 10 Este 21 Este 0 929 -- 69
2020-11-10 14:00:00 14 4 Este 13 Nordeste 0 929.3 -- 66
2020-11-10 13:00:00 11.2 4 Sudeste 14 Sudeste 0 929.7 -- 77
2020-11-10 12:00:00 10.3 4 Este 10 Sudeste 0 930.2 -- 77
2020-11-10 11:00:00 9.2 2 Norte 7 Nordeste 0 930 -- 83
2020-11-10 10:00:00 5.1 2 Este 5 Este 0 930 -- 94
2020-11-10 09:00:00 1 2 Norte 6 Sudeste 0 929.5 -- 95
2020-11-10 08:00:00 -0.3 3 Sudeste 5 Sudeste 0 928.7 -- 94
2020-11-10 07:00:00 0.3 0 Calma 4 Sur 0 928.3 -- 94
2020-11-10 06:00:00 0.8 3 Sur 6 Sudeste 0 928.2 -- 94
2020-11-10 05:00:00 1.3 0 Calma 5 Sudeste 0.2 927.9 -- 94
2020-11-10 04:00:00 2.1 3 Sudeste 4 Sudeste 0 927.8 -- 93
2020-11-10 03:00:00 3.2 0 Calma 6 Noroeste 0 927.8 -- 93
2020-11-10 02:00:00 4.5 0 Calma 5 Sur 0 927.6 -- 93
2020-11-10 01:00:00 5.6 0 Calma 9 Sur 0 927.6 -- 93
2020-11-10 00:00:00 5.9 7 Sur 12 Sur 0 927.4 -- 93
2020-11-09 23:00:00 5.3 0 Calma 10 Sudoeste 0 927.6 -- 92
2020-11-09 22:00:00 6.2 4 Este 8 Este 0 927.1 -- 90
2020-11-09 21:00:00 7.8 3 Sudeste 7 Sudoeste 0 926.8 -- 90
2020-11-09 20:00:00 8.5 3 Sur 19 Sudoeste 0 926.7 -- 88
2020-11-09 19:00:00 9.8 10 Sudoeste 19 Sudoeste 0 926.1 -- 87
2020-11-09 18:00:00 10.3 8 Sudoeste 19 Sudoeste 0 925.2 -- 83
2020-11-09 17:00:00 11.8 8 Sudoeste 19 Sudoeste 0 925.1 -- 81
2020-11-09 16:00:00 11.6 8 Oeste 25 Oeste 0 924.7 -- 82
2020-11-09 15:00:00 12.3 13 Sudoeste 24 Sudoeste 0.2 924.4 -- 73
2020-11-09 14:00:00 11.6 14 Sudoeste 26 Sudoeste 0 924.5 -- 77
2020-11-09 13:00:00 11 10 Sur 23 Sudoeste 0 924.8 -- 81
2020-11-09 12:00:00 11 9 Sudoeste 21 Oeste 0 924.9 -- 80
2020-11-09 11:00:00 10.6 9 Sudoeste 22 Sudoeste 0 924.7 -- 84
2020-11-09 10:00:00 10.3 7 Sudoeste 23 Sudoeste 0 924.4 -- 88
2020-11-09 09:00:00 9.2 8 Sur 14 Sur 0 923.9 -- 89
2020-11-09 08:00:00 8.9 8 Sur 19 Sudoeste 0 923 -- 90
2020-11-09 07:00:00 8.9 7 Sudoeste 15 Sudoeste 0 922.4 -- 89
2020-11-09 06:00:00 8.9 10 Sudoeste 20 Sudoeste 0 922.3 -- 90
2020-11-09 05:00:00 9.1 10 Sudoeste 23 Sudoeste 0 922.2 -- 89
2020-11-09 04:00:00 9.3 10 Sudoeste 17 Sudoeste 0 921.9 -- 89
2020-11-09 03:00:00 9.5 12 Sudoeste 21 Sudoeste 0 921.8 -- 88
2020-11-09 02:00:00 9.6 8 Sur 17 Sudoeste 0 921.8 -- 89
2020-11-09 01:00:00 9.8 6 Sudoeste 14 Oeste 0 922.1 -- 88
2020-11-09 00:00:00 9.9 6 Sudoeste 22 Sur 0 922 -- 88
2020-11-08 23:00:00 9.9 8 Sur 19 Sur 0.4 921.8 -- 88
2020-11-08 22:00:00 9.8 3 Sur 11 Sur 1 921.5 -- 88
2020-11-08 21:00:00 10.2 5 Sur 22 Sur 1.4 921.5 -- 87
2020-11-08 20:00:00 10.2 10 Sur 26 Sur 1.6 921 -- 89
2020-11-08 19:00:00 10.3 10 Sur 27 Sur 1 921 -- 87
2020-11-08 18:00:00 10.6 13 Sur 37 Sur 0.8 920.4 -- 87
2020-11-08 17:00:00 11.7 7 Sur 24 Sur 1.4 920.3 -- 84
2020-11-08 16:00:00 12.3 4 Noroeste 17 Sudeste 2 920.1 -- 85
2020-11-08 15:00:00 10 5 Sur 10 Sudoeste 2.2 920.8 -- 87
2020-11-08 14:00:00 10.3 5 Sudoeste 26 Sur 2.4 921.2 -- 87
2020-11-08 13:00:00 10.2 12 Sur 38 Sudoeste 0.6 921.9 -- 86
2020-11-08 12:00:00 10.4 12 Sudoeste 54 Sur 0 922.2 -- 86
2020-11-08 11:00:00 10.2 14 Sur 51 Sur 0 921.9 -- 88
2020-11-08 10:00:00 10.4 13 Sur 45 Sur 0 921.6 -- 86
2020-11-08 09:00:00 9.8 16 Sur 44 Sudeste 0 921.4 -- 88
2020-11-08 08:00:00 9.6 17 Sur 42 Sur 0 921.1 -- 88
2020-11-08 07:00:00 9.8 15 Sur 43 Sur 0 921.1 -- 86
2020-11-08 06:00:00 10 18 Sur 55 Sur 0 921.3 -- 86
2020-11-08 05:00:00 10.1 14 Sur 40 Sur 0 921.6 -- 87
2020-11-08 04:00:00 10 14 Sur 32 Sur 0 922.1 -- 87
2020-11-08 03:00:00 10.3 13 Sur 41 Sur 0 922.2 -- 86
2020-11-08 02:00:00 10.5 13 Sur 33 Sur 0 922.2 -- 84
2020-11-08 01:00:00 10.5 13 Sur 35 Sur 0 922.5 -- 84
2020-11-08 00:00:00 10.4 9 Sur 32 Sur 0 922.4 -- 85
2020-11-07 23:00:00 10.3 12 Sur 36 Sudoeste 0 922.5 -- 87
2020-11-07 22:00:00 10.4 13 Sur 29 Sur 0 922.6 -- 84
2020-11-07 21:00:00 10.9 13 Sudoeste 26 Sudoeste 0 922.4 -- 79
2020-11-07 20:00:00 11 13 Sudoeste 29 Sudoeste 0 922 -- 79
2020-11-07 19:00:00 10.9 4 Sur 17 Sudoeste 0 921.4 -- 77
2020-11-07 18:00:00 11.3 6 Sudoeste 32 Sudoeste 0 920.8 -- 74
2020-11-07 17:00:00 12.3 10 Sudoeste 36 Sur 0 920.3 -- 69
2020-11-07 16:00:00 13.2 9 Sudoeste 34 Sudoeste 0 920.1 -- 69
2020-11-07 15:00:00 12.2 16 Sudoeste 34 Sudoeste 0 919.9 -- 67
2020-11-07 14:00:00 12.3 15 Sudoeste 35 Sudoeste 0 919.7 -- 70
2020-11-07 13:00:00 13.3 14 Sudoeste 32 Sur 0 919.5 -- 68
2020-11-07 12:00:00 11.3 14 Sur 27 Sudoeste 0 919.3 -- 77
2020-11-07 11:00:00 10.6 13 Sudoeste 25 Sudoeste 0 918.4 -- 82
2020-11-07 10:00:00 9.8 14 Sudoeste 27 Sur 0 917.5 -- 88
2020-11-07 09:00:00 9.4 8 Sudoeste 19 Sur 0 916.8 -- 89
2020-11-07 08:00:00 9.2 5 Sudoeste 14 Sudoeste 0 915.9 -- 89
2020-11-07 07:00:00 9.3 7 Sudoeste 14 Sudoeste 0 915.3 -- 90
2020-11-07 06:00:00 9.5 3 Sur 9 Sudeste 0 915.3 -- 90
2020-11-07 05:00:00 9.8 3 Nordeste 11 Sudeste 0 914.9 -- 90
2020-11-07 04:00:00 9.9 4 Sudeste 14 Sur 0 914.9 -- 89
2020-11-07 03:00:00 10.2 11 Sur 24 Sur 0 915.1 -- 86
2020-11-07 02:00:00 10.3 15 Sur 41 Sur 0 915.1 -- 85
2020-11-07 01:00:00 10.1 17 Sur 36 Sudeste 0 915.4 -- 87
2020-11-07 00:00:00 10.1 8 Sur 33 Sur 0 915.2 -- 85
2020-11-06 23:00:00 10.6 14 Sur 36 Sur 0 915.3 -- 80
2020-11-06 22:00:00 11 13 Sur 56 Sur 0 915 -- 78
2020-11-06 21:00:00 12.9 25 Sur 64 Sur 0 914.8 -- 66
2020-11-06 20:00:00 14.5 24 Sudeste 50 Sudeste 0 914 -- 66
2020-11-06 19:00:00 14.4 23 Sudeste 47 Sudeste 0.2 913.9 -- 74
2020-11-06 18:00:00 11.9 4 Noroeste 9 Noroeste 0 914.1 -- 90
2020-11-06 17:00:00 12.7 0 Calma 9 Norte 0 914.4 -- 88
2020-11-06 16:00:00 12.5 3 Nordeste 20 Este 0 915.1 -- 86
2020-11-06 15:00:00 12.1 7 Este 23 Este 0 915.7 -- 88
2020-11-06 14:00:00 11.3 14 Este 32 Este 0 916.4 -- 89
2020-11-06 13:00:00 10.3 7 Nordeste 23 Nordeste 0 916.2 -- 92
2020-11-06 12:00:00 9.8 9 Este 18 Este 0 917.8 -- 93
2020-11-06 11:00:00 9.2 6 Este 17 Este 0 918.5 -0.4 93
2020-11-06 10:00:00 8.6 5 Noroeste 10 Noroeste 0.2 918.5 -- 93
2020-11-06 09:00:00 8.2 2 Nordeste 9 Norte 0.2 919 -- 93
2020-11-06 08:00:00 8 2 Norte 8 Noroeste 0.6 918.9 -- 92
2020-11-06 07:00:00 8.3 3 Noroeste 10 Noroeste 0.6 918.5 -- 92
2020-11-06 06:00:00 8.7 3 Este 14 Este 0.6 918.8 -- 90
2020-11-06 05:00:00 9.7 11 Sudeste 50 Sur 0.8 918.5 -- 86
2020-11-06 04:00:00 9.1 12 Sudeste 33 Sur 0.8 919.5 -- 93
2020-11-06 03:00:00 8.8 6 Nordeste 19 Nordeste 0.8 918.5 -- 93
2020-11-06 02:00:00 9 8 Este 22 Este 0.6 918.7 -- 93
2020-11-06 01:00:00 9 5 Este 20 Este 0.2 919.4 -- 93
2020-11-06 00:00:00 9.1 8 Este 21 Este 0.4 920 -- 92
2020-11-05 23:00:00 9.4 11 Este 25 Este 0 920.2 -- 92
2020-11-05 22:00:00 9.6 10 Este 25 Este 0.2 920.4 -- 92
2020-11-05 21:00:00 9.4 7 Este 20 Este 0 920.3 -- 92
2020-11-05 20:00:00 9.4 9 Este 21 Este 0 920.6 -- 91
2020-11-05 19:00:00 9.5 6 Nordeste 16 Nordeste 0 920.6 -- 90
2020-11-05 18:00:00 9.7 9 Este 20 Este 0.2 920.2 -- 87
2020-11-05 17:00:00 9.9 10 Nordeste 80 Noroeste 0 920.3 -- 85
2020-11-05 16:00:00 9.9 11 Este 52 Norte 0.2 920.4 -- 86
2020-11-05 15:00:00 9.5 9 Este 19 Este 0 920.5 -- 90
2020-11-05 14:00:00 8.8 10 Este 20 Este 0.2 921.2 -- 91
2020-11-05 13:00:00 8 9 Nordeste 25 Nordeste 0 922 -- 91
2020-11-05 12:00:00 7.4 10 Nordeste 21 Este 0.4 922.6 -- 90
2020-11-05 11:00:00 7 9 Nordeste 30 Este 0.6 923.1 -- 89
2020-11-05 10:00:00 6.8 16 Este 36 Nordeste 0 923.4 -- 86
2020-11-05 09:00:00 6.4 14 Nordeste 31 Este 0 922.9 -- 85
2020-11-05 08:00:00 6.2 14 Nordeste 27 Nordeste 0 922.3 -- 85
2020-11-05 07:00:00 6 14 Nordeste 32 Este 0 922.5 -- 84
2020-11-05 06:00:00 6 14 Este 30 Este 0 923 -- 83
2020-11-05 05:00:00 5.5 12 Nordeste 29 Este 0 922.8 -- 83
2020-11-05 04:00:00 5.2 11 Nordeste 35 Nordeste 0 922.9 -- 83
2020-11-05 03:00:00 5 13 Este 32 Nordeste 0 923.4 -- 82
2020-11-05 02:00:00 4.7 10 Nordeste 25 Este 0 923.3 -- 83
2020-11-05 01:00:00 4.2 8 Nordeste 21 Nordeste 0 923.6 -- 86
2020-11-05 00:00:00 4.1 9 Nordeste 22 Nordeste 0 923.7 -- 87
2020-11-04 23:00:00 4 8 Nordeste 22 Nordeste 0.2 923.6 -- 90
2020-11-04 22:00:00 4 10 Nordeste 33 Nordeste 0.4 923.4 -- 89
2020-11-04 21:00:00 4.1 17 Nordeste 53 Nordeste 0.8 923 -- 85
2020-11-04 20:00:00 5.8 24 Este 55 Este 0 922.4 -- 72
2020-11-04 19:00:00 6.9 26 Este 53 Este 0 921.7 -- 59
2020-11-04 18:00:00 7.4 21 Nordeste 55 Nordeste 0 921.2 -- 56
2020-11-04 17:00:00 8.6 20 Nordeste 53 Nordeste 0 921.2 -- 52
2020-11-04 16:00:00 9 22 Este 51 Este 0 921.3 -- 52
2020-11-04 15:00:00 8.8 19 Nordeste 53 Este 0 921.4 -- 52
2020-11-04 14:00:00 8.2 21 Nordeste 50 Este 0 922.2 -- 55
2020-11-04 13:00:00 8.5 22 Nordeste 76 Norte 0 922.9 -- 54
2020-11-04 12:00:00 7.7 18 Nordeste 36 Nordeste 0 924 -- 58
2020-11-04 11:00:00 6.2 14 Nordeste 29 Nordeste 0 924.9 -0.3 65
2020-11-04 10:00:00 4.6 8 Nordeste 49 Este 0 925.5 -- 74
2020-11-04 09:00:00 3.1 3 Este 8 Este 0 925.4 -- 80
2020-11-04 08:00:00 3.1 2 Este 6 Sudeste 0 925.2 -- 80
2020-11-04 07:00:00 3.4 3 Sudeste 5 Este 0 925.7 -- 80
2020-11-04 06:00:00 3.4 2 Sudeste 6 Este 0 926.2 -- 79
2020-11-04 05:00:00 3.4 3 Norte 9 Este 0 926.7 -- 80
2020-11-04 04:00:00 3 2 Este 7 Sudeste 0 927.4 -- 80
2020-11-04 03:00:00 2.9 2 Norte 6 Norte 0 928.2 -- 81
2020-11-04 02:00:00 2.7 3 Noroeste 10 Este 0 928.7 -- 81
2020-11-04 01:00:00 3.7 5 Este 14 Nordeste 0 929.4 -- 77
2020-11-04 00:00:00 2.4 4 Sudeste 9 Sudeste 0 930.3 -- 80
2020-11-03 23:00:00 3.3 3 Sur 9 Sudeste 0 930.6 -- 77
2020-11-03 22:00:00 4.3 4 Este 10 Este 0 930.8 -- 74
2020-11-03 21:00:00 5.7 5 Este 19 Este 0 930.9 -- 68
2020-11-03 20:00:00 6.6 7 Este 18 Nordeste 0 931 -- 63
2020-11-03 19:00:00 8.3 8 Nordeste 21 Nordeste 0 930.5 -- 58
2020-11-03 18:00:00 11 10 Nordeste 25 Nordeste 0 930.2 -- 50
2020-11-03 17:00:00 13.5 10 Nordeste 63 Oeste 0 929.9 -- 41
2020-11-03 16:00:00 14.3 17 Este 35 Nordeste 0 930 -- 39
2020-11-03 15:00:00 14.9 13 Nordeste 37 Nordeste 0 930 -- 41
2020-11-03 14:00:00 14.7 14 Nordeste 35 Nordeste 0 930.4 -- 43
2020-11-03 13:00:00 13.8 15 Nordeste 36 Nordeste 0 930.6 -- 43
2020-11-03 12:00:00 13.5 12 Nordeste 31 Nordeste 0 930.9 -- 45
2020-11-03 11:00:00 11.8 7 Nordeste 16 Este 0 930.7 -- 55
2020-11-03 10:00:00 8.9 6 Nordeste 12 Este 0 930.8 -- 57
2020-11-03 09:00:00 5.2 0 Calma 7 Sudeste 0 930.2 -- 70
2020-11-03 08:00:00 2.6 4 Sur 9 Sur 0 929.2 -- 77
2020-11-03 07:00:00 3.3 5 Sur 8 Sudeste 0 929 -- 79
2020-11-03 06:00:00 4.7 3 Sudeste 10 Este 0 928.5 -- 78
2020-11-03 05:00:00 6.6 6 Sudeste 12 Sudeste 0 928.1 -- 76
2020-11-03 04:00:00 8.7 4 Este 12 Sudeste 0 927.9 -- 75
2020-11-03 03:00:00 9.7 4 Sur 13 Este 0 927.3 -- 80
2020-11-03 02:00:00 10.7 3 Sur 8 Sudeste 0 926.6 -- 87
2020-11-03 01:00:00 11.5 7 Sudeste 13 Sudeste 0 926.7 -- 87
2020-11-03 00:00:00 12 4 Sur 17 Sudeste 0 926.5 -- 87
2020-11-02 23:00:00 12.6 3 Sur 16 Sudoeste 0 926.2 -- 88
2020-11-02 22:00:00 13.6 10 Sudoeste 25 Sudoeste 0 925.9 -- 87
2020-11-02 21:00:00 14 14 Sudoeste 34 Sudoeste 0 926 -- 88
2020-11-02 20:00:00 14.4 17 Sudoeste 29 Sudoeste 0 925.8 -- 89
2020-11-02 19:00:00 14.4 10 Sudoeste 23 Oeste 0.4 925.5 -- 89
2020-11-02 18:00:00 15 8 Sudoeste 29 Sudoeste 0 925.1 -- 83
2020-11-02 17:00:00 15.3 12 Sudoeste 25 Sudoeste 0 925.1 -- 82
2020-11-02 16:00:00 16.5 16 Sudoeste 27 Sudoeste 0 925 -- 73
2020-11-02 15:00:00 17.1 13 Sudoeste 31 Sur 0 925 -- 72
2020-11-02 14:00:00 15.5 17 Sudoeste 33 Sudoeste 0 925.4 -- 76
2020-11-02 13:00:00 15.1 9 Sudoeste 30 Oeste 0 926.1 -- 81
2020-11-02 12:00:00 14.9 17 Sudoeste 30 Sudoeste 0 926.4 -- 82
2020-11-02 11:00:00 14.1 16 Sur 35 Sudoeste 0 926.1 -- 86
2020-11-02 10:00:00 13.8 16 Sudoeste 30 Sudoeste 0 926.1 -- 87
2020-11-02 09:00:00 12.9 14 Sudoeste 33 Sudoeste 0 925.8 -- 90
2020-11-02 08:00:00 12.7 15 Sudoeste 30 Sur 0 925.1 -- 90
2020-11-02 07:00:00 12.9 11 Sudoeste 23 Sudoeste 0 925.1 -- 89
2020-11-02 06:00:00 13 12 Sudoeste 24 Sudoeste 0 925.1 -- 88
2020-11-02 05:00:00 13.2 11 Sudoeste 30 Sudoeste 0 925 -- 88
2020-11-02 04:00:00 13.3 13 Sudoeste 26 Sudoeste 0 925 -- 87
2020-11-02 03:00:00 13.5 13 Sudoeste 28 Sudoeste 0 925.2 -- 87
2020-11-02 02:00:00 13.6 14 Sudoeste 26 Oeste 0 925.5 -- 86
2020-11-02 01:00:00 13.6 13 Sudoeste 23 Sudoeste 0 926 -- 87
2020-11-02 00:00:00 13.7 11 Sudoeste 23 Sudoeste 0 926.2 -- 88
2020-11-01 23:00:00 13.7 12 Sudoeste 26 Sur 0 926.2 -- 89
2020-11-01 22:00:00 13.7 14 Sudoeste 28 Sudoeste 0 926.3 -- 89
2020-11-01 21:00:00 13.8 11 Sudoeste 24 Sudoeste 0 926.2 -- 89
2020-11-01 20:00:00 13.8 12 Sudoeste 25 Sudoeste 0 926.3 -- 89
2020-11-01 19:00:00 14 14 Sudoeste 26 Sudoeste 0 926.1 -- 86
2020-11-01 18:00:00 14.8 10 Sudoeste 18 Sudoeste 0 926.1 -- 84
2020-11-01 17:00:00 15.3 7 Sudoeste 23 Sudoeste 0 926.3 -- 82
2020-11-01 16:00:00 15.1 12 Sudoeste 29 Sudoeste 0 926.5 -- 81
2020-11-01 15:00:00 14.7 13 Oeste 25 Sudoeste 0 926.8 -- 83
2020-11-01 14:00:00 13.7 17 Sudoeste 28 Sudoeste 0 927.2 -- 86
2020-11-01 13:00:00 14 13 Sudoeste 26 Sudoeste 0 928 -- 83
2020-11-01 12:00:00 13.5 4 Sudoeste 16 Sur 0 928.3 -- 85
2020-11-01 11:00:00 13.2 12 Sudoeste 23 Sudoeste 0 928.4 -- 86
2020-11-01 10:00:00 12.6 10 Sur 30 Sur 0 928 -- 89
2020-11-01 09:00:00 12.6 12 Sudoeste 28 Sudoeste 0 927.5 -- 89
2020-11-01 08:00:00 12.4 12 Sur 30 Sudoeste 0 927.3 -- 88
2020-11-01 07:00:00 12.6 17 Sudoeste 28 Sudoeste 0 926.7 -- 87
2020-11-01 06:00:00 12.1 9 Sudoeste 19 Oeste 0 927.2 -- 89
2020-11-01 05:00:00 11.9 8 Sudoeste 18 Sudoeste 0 927.2 -- 89
2020-11-01 04:00:00 12 8 Sudoeste 21 Oeste 0 927.3 -- 87
2020-11-01 03:00:00 12 10 Sudoeste 20 Sudoeste 0 927.9 -- 86
2020-11-01 02:00:00 11.9 10 Oeste 19 Oeste 0 927.7 -- 86
2020-11-01 01:00:00 12.1 12 Sudoeste 19 Sudoeste 0 928.2 -- 86
2020-11-01 00:00:00 12.5 12 Sudoeste 22 Sudoeste 0 928.3 -- 84
2020-10-31 23:00:00 12.2 11 Sudoeste 22 Sudoeste 0 928.5 -- 85
2020-10-31 22:00:00 12.2 9 Oeste 19 Sudoeste 0 928.4 -- 84
2020-10-31 21:00:00 11.9 12 Sudoeste 19 Sudoeste 0 928.1 -- 85
2020-10-31 20:00:00 12.6 6 Sudoeste 15 Sudoeste 0 928 -- 80
2020-10-31 19:00:00 13.4 10 Sudoeste 19 Sudoeste 0 927.7 -- 76
2020-10-31 18:00:00 15.2 10 Sudoeste 24 Sudoeste 0 927.9 -- 68
2020-10-31 17:00:00 16.1 11 Sudoeste 29 Oeste 0 927.6 -- 66
2020-10-31 16:00:00 16.4 18 Oeste 40 Sudoeste 0 927.2 -- 63
2020-10-31 15:00:00 16.3 15 Oeste 30 Oeste 0 927.4 -- 66
2020-10-31 14:00:00 15.3 14 Oeste 32 Oeste 0 928.4 -- 73
2020-10-31 13:00:00 16 14 Sudoeste 31 Oeste 0 928.2 -- 69
2020-10-31 12:00:00 15.2 13 Sudoeste 23 Sudoeste 0 928.7 -- 72
2020-10-31 11:00:00 14.6 14 Sudoeste 33 Sudoeste 0 928.5 -- 75
2020-10-31 10:00:00 13.2 7 Sudoeste 19 Oeste 0 928.6 -- 84
2020-10-31 09:00:00 7.6 4 Noroeste 10 Sudeste 0 928.3 -- 92
2020-10-31 08:00:00 5.4 3 Noroeste 10 Norte 0 927.8 -- 92
2020-10-31 07:00:00 8.5 8 Oeste 18 Sudoeste 0 928 -- 94
2020-10-31 06:00:00 5.9 3 Sudeste 7 Norte 0 927.8 -- 93
2020-10-31 05:00:00 6 5 Sudoeste 9 Sur 0 927.2 -- 93
2020-10-31 04:00:00 4.4 4 Noroeste 7 Noroeste 0 927.4 -- 93
2020-10-31 03:00:00 3.6 3 Sudeste 8 Sur 0 927.7 -- 93
2020-10-31 02:00:00 4.1 2 Sudeste 7 Sudeste 0 927.8 -- 92
2020-10-31 01:00:00 4 6 Sudeste 8 Sur 0 927.7 -- 90
2020-10-31 00:00:00 5.2 5 Noroeste 7 Noroeste 0 928.2 -- 90
2020-10-30 23:00:00 5.7 2 Noroeste 6 Sur 0 928.2 -- 88
2020-10-30 22:00:00 7.5 0 Calma 6 Oeste 0 928.2 -- 87
2020-10-30 21:00:00 8.5 4 Sudeste 8 Sur 0 927.8 -- 84
2020-10-30 20:00:00 10.1 2 Oeste 11 Sur 0 927.6 -- 81
2020-10-30 19:00:00 12.4 5 Sur 16 Sudoeste 0 927.3 -- 75
2020-10-30 18:00:00 16.2 6 Oeste 18 Sudoeste 0 927.3 -- 61
2020-10-30 17:00:00 19 7 Oeste 23 Sudoeste 0 927.3 -- 51
2020-10-30 16:00:00 19 4 Sudoeste 19 Sur 0 927.4 -- 54
2020-10-30 15:00:00 18.9 9 Sudoeste 25 Sudoeste 0 927.8 -- 54
2020-10-30 14:00:00 18.1 6 Oeste 22 Sur 0 928.3 -- 60
2020-10-30 13:00:00 15.6 4 Noroeste 10 Norte 0 928.9 -- 68
2020-10-30 12:00:00 12.4 3 Norte 6 Norte 0 929.7 -- 77
2020-10-30 11:00:00 9.3 4 Noroeste 9 Noroeste 0 929.8 -- 85
2020-10-30 10:00:00 7.4 2 Noroeste 14 Este 0 929.9 -- 90
2020-10-30 09:00:00 6.2 3 Norte 60 Este 0 929.7 -- 92
2020-10-30 08:00:00 5.3 0 Calma 5 Oeste 0 929.1 -- 92
2020-10-30 07:00:00 5 0 Calma 4 Sudeste 0 928.9 -- 93
2020-10-30 06:00:00 4.3 3 Sudeste 4 Sur 0 928.8 -- 92
2020-10-30 05:00:00 4.7 0 Calma 5 Sur 0 928.6 -- 92
2020-10-30 04:00:00 4.4 3 Sur 8 Sur 0 928.7 -- 93
2020-10-30 03:00:00 3.7 5 Sur 8 Sur 0 928.9 -- 93
2020-10-30 02:00:00 3 0 Calma 8 Sudeste 0 929 -- 93
2020-10-30 01:00:00 2 0 Calma 5 Sudeste 0 929 -- 92
2020-10-30 00:00:00 2.4 3 Sur 5 Sudeste 0 929.2 -- 91
2020-10-29 23:00:00 3.7 3 Noroeste 5 Sur 0 929.1 -- 91
2020-10-29 22:00:00 5 4 Sur 8 Sur 0 928.9 -- 91
2020-10-29 21:00:00 4.9 5 Sur 7 Sudeste 0 928.7 -- 89
2020-10-29 20:00:00 6.6 4 Sur 6 Sur 0 928.8 -- 85
2020-10-29 19:00:00 8.9 2 Noroeste 10 Sudoeste 0 928.4 -- 79
2020-10-29 18:00:00 12.3 5 Sudoeste 16 Sur 0 928 -- 67
2020-10-29 17:00:00 14.4 8 Sudoeste 18 Sudoeste 0 928 -- 59
2020-10-29 16:00:00 14.5 5 Sur 16 Sudoeste 0 928.1 -- 57
2020-10-29 15:00:00 14.3 8 Sudoeste 18 Sur 0 928.5 -- 58
2020-10-29 14:00:00 13.2 6 Sur 16 Oeste 0 928.9 -- 63
2020-10-29 13:00:00 11.3 2 Norte 6 Noroeste 0 929.5 -- 73
2020-10-29 12:00:00 8.9 0 Calma 7 Norte 0 929.7 -- 81
2020-10-29 11:00:00 6.9 3 Noroeste 7 Noroeste 0 929.7 -- 87
2020-10-29 10:00:00 4.8 2 Norte 5 Norte 0 929.6 -- 91
2020-10-29 09:00:00 1.3 0 Calma 6 Sudeste 0 929.1 -- 94
2020-10-29 08:00:00 -0.7 4 Sudeste 7 Norte 0 928.6 -- 94
2020-10-29 07:00:00 -0.7 5 Sur 9 Sudeste 0 928 -- 93
2020-10-29 06:00:00 -0.5 0 Calma 6 Sur 0 928 -- 93
2020-10-29 05:00:00 0.3 0 Calma 5 Nordeste 0 927.6 -- 93
2020-10-29 04:00:00 0.9 2 Sudeste 6 Sur 0 927.4 -- 91
2020-10-29 03:00:00 1.8 2 Sur 5 Noroeste 0 927.6 -- 90
2020-10-29 02:00:00 2.8 0 Calma 8 Norte 0 927.3 -- 89
2020-10-29 01:00:00 4.5 4 Este 8 Noroeste 0 926.9 -- 89
2020-10-29 00:00:00 5.9 2 Noroeste 6 Oeste 0 927.1 -- 87
2020-10-28 23:00:00 7.4 2 Noroeste 17 Sudoeste 0 926.9 -- 82
2020-10-28 22:00:00 9.5 12 Sudoeste 26 Sudoeste 0 926.6 -- 75
2020-10-28 21:00:00 10.1 15 Sudoeste 32 Sudoeste 0 926.3 -- 74
2020-10-28 20:00:00 10.2 11 Sudoeste 26 Sudoeste 0 926 -- 73
2020-10-28 19:00:00 10.7 13 Sudoeste 23 Sudoeste 0 925.6 -- 70
2020-10-28 18:00:00 12.2 12 Sudoeste 29 Sudoeste 0 925 -- 66
2020-10-28 17:00:00 13.5 13 Sudoeste 39 Sudoeste 0 924.5 -- 61
2020-10-28 16:00:00 14.7 16 Sudoeste 44 Sudoeste 0 924.5 -- 56
2020-10-28 15:00:00 14.6 21 Sudoeste 39 Sudoeste 0 924.5 -- 59
2020-10-28 14:00:00 14.2 18 Sudoeste 40 Sudoeste 0 923.9 -- 61
2020-10-28 13:00:00 14.2 22 Sudoeste 38 Sudoeste 0 924.2 -- 63
2020-10-28 12:00:00 13.8 16 Sudoeste 32 Sudoeste 0 924.6 -- 67
2020-10-28 11:00:00 12.2 12 Oeste 27 Oeste 0 924 -- 76
2020-10-28 10:00:00 11.5 8 Sudoeste 22 Sudoeste 0 923.5 -- 80
2020-10-28 09:00:00 9.6 15 Sudoeste 25 Sudoeste 0 922.6 -- 85
2020-10-28 08:00:00 9.1 14 Sudoeste 23 Sudoeste 0 921.8 -- 86
2020-10-28 07:00:00 9.6 9 Sudoeste 25 Sudoeste 0 921.3 -- 86
2020-10-28 06:00:00 9.9 14 Sudoeste 24 Sudoeste 0 921 -- 89
2020-10-28 05:00:00 10.6 13 Sudoeste 28 Sudoeste 0 920.7 -- 90
2020-10-28 04:00:00 10.6 10 Sudoeste 21 Sudoeste 0.2 920.8 -- 92
2020-10-28 03:00:00 10.5 8 Sudoeste 19 Sudoeste 0.2 920.8 -- 91
2020-10-28 02:00:00 10.4 11 Sudoeste 22 Sudoeste 0.2 920.7 -- 91
2020-10-28 01:00:00 10.3 13 Sudoeste 27 Sudoeste 0.2 920.8 -- 91
2020-10-28 00:00:00 10.2 17 Sudoeste 36 Sudoeste 0.2 920.9 -- 91
2020-10-27 23:00:00 10 13 Sudoeste 29 Sudoeste 0 920.9 -- 91
2020-10-27 22:00:00 9.9 13 Sudoeste 28 Oeste 0 921 -- 91
2020-10-27 21:00:00 9.7 11 Sudoeste 28 Sur 0.2 921 -- 91
2020-10-27 20:00:00 9.6 10 Sudoeste 37 Sudoeste 0.2 920.8 -- 91
2020-10-27 19:00:00 9.4 19 Sudoeste 35 Sudoeste 0 920.4 -- 91
2020-10-27 18:00:00 9.4 17 Sudoeste 36 Sudoeste 0.2 920.5 -- 91
2020-10-27 17:00:00 9.4 15 Sudoeste 31 Sudoeste 0 920.7 -- 90
2020-10-27 16:00:00 9.8 14 Sudoeste 31 Sudoeste 0 920.5 -- 88
2020-10-27 15:00:00 9.6 15 Oeste 31 Sudoeste 0 920.6 -- 88
2020-10-27 14:00:00 9.9 17 Oeste 33 Oeste 0 920.6 -- 84
2020-10-27 13:00:00 9.9 14 Oeste 36 Oeste 0 921.1 -- 83
2020-10-27 12:00:00 8.5 13 Sudoeste 32 Sudoeste 0 921.7 -- 89
2020-10-27 11:00:00 8.2 14 Sudoeste 33 Sudoeste 0 921.5 -- 88
2020-10-27 10:00:00 7.4 7 Sudoeste 75 Sudeste 0 921.4 -- 90
2020-10-27 09:00:00 6.8 10 Sudoeste 23 Sudoeste 0 921.2 -- 91
2020-10-27 08:00:00 6.5 4 Sudoeste 22 Sudoeste 0 920.8 -- 90
2020-10-27 07:00:00 6.5 11 Sudoeste 28 Oeste 0 920.9 -- 89
2020-10-27 06:00:00 6.3 14 Sudoeste 31 Sudoeste 0 920.8 -- 88
2020-10-27 05:00:00 6.2 5 Sudoeste 28 Sudoeste 0 920.7 -- 87
2020-10-27 04:00:00 6.2 9 Sudoeste 33 Sur 0 921.4 -- 86
2020-10-27 03:00:00 6.3 18 Sudoeste 35 Sudoeste 0 921.5 -- 84
2020-10-27 02:00:00 6.5 18 Sudoeste 34 Sudoeste 0 921.7 -- 83
2020-10-27 01:00:00 6.2 15 Sudoeste 28 Sudoeste 0 921.9 -- 85
2020-10-27 00:00:00 6.2 18 Sudoeste 31 Sudoeste 0 922.5 -- 84
2020-10-26 23:00:00 6 17 Sudoeste 32 Sudoeste 0 922.5 -- 84
2020-10-26 22:00:00 6.2 15 Sudoeste 28 Sudoeste 0 922.6 -- 80
2020-10-26 21:00:00 6.3 17 Sudoeste 30 Oeste 0 922.1 -- 75
2020-10-26 20:00:00 6.4 16 Sudoeste 28 Sudoeste 0 922.3 -- 77
2020-10-26 19:00:00 7.2 13 Sudoeste 29 Oeste 0 921.9 -- 72
2020-10-26 18:00:00 8.3 13 Oeste 28 Oeste 0 921.7 -- 69
2020-10-26 17:00:00 9.3 15 Oeste 37 Oeste 0 921.5 -- 63
2020-10-26 16:00:00 9.6 17 Oeste 39 Oeste 0 921.2 -- 67
2020-10-26 15:00:00 10.8 13 Oeste 40 Oeste 0 920.9 -- 54
2020-10-26 14:00:00 10.5 19 Oeste 41 Oeste 0 921.5 -- 55
2020-10-26 13:00:00 10.3 13 Noroeste 30 Oeste 0 921.6 -- 54
2020-10-26 12:00:00 10.8 9 Oeste 29 Sudoeste 0 921.4 -- 53
2020-10-26 11:00:00 8.7 12 Oeste 27 Sudoeste 0 921.2 -- 66
2020-10-26 10:00:00 6.9 11 Sudoeste 24 Sudoeste 0 921 -- 70
2020-10-26 09:00:00 5.1 10 Sudoeste 23 Sudoeste 0 920.1 -- 75
2020-10-26 08:00:00 3.2 6 Noroeste 24 Sudoeste 0 919.3 -- 80
2020-10-26 07:00:00 2.8 10 Sudoeste 24 Oeste 0 918.6 -- 85
2020-10-26 06:00:00 3 13 Sudoeste 27 Oeste 0 918 -- 86
2020-10-26 05:00:00 3.2 14 Sudoeste 30 Sudoeste 0 917.2 -- 87
2020-10-26 04:00:00 3.4 15 Sudoeste 32 Sudoeste 0 916.9 -- 86
2020-10-26 03:00:00 3.6 16 Sudoeste 32 Oeste 0 916.9 -- 85
2020-10-26 02:00:00 3.9 16 Sudoeste 30 Sudoeste 0 916.7 -- 84
2020-10-26 01:00:00 4.4 18 Sudoeste 37 Sudoeste 0 916.6 -- 83
2020-10-26 00:00:00 4.5 14 Sudoeste 44 Oeste 0 916.6 -- 82